Time;durP1;ratioP1;P1;durP2;ratioP2;P2;SDS_P1;SDS_P2;PMS_P1;PMS_P2;Temp;Humidity;BMP_temperature;BMP_pressure;BME280_temperature;BME280_humidity;BME280_pressure;Samples;Min_cycle;Max_cycle;Signal;HPM_P1;HPM_P2
2021/05/05 00:00:37;;;;;;;5.63;1.40;;;7.50;81.00;;;;;;5052174;28;20237;-88
2021/05/05 00:03:03;;;;;;;5.43;2.03;;;7.60;80.90;;;;;;5052255;28;20221;-88
2021/05/05 00:05:29;;;;;;;12.33;1.57;;;7.60;80.00;;;;;;5052125;28;20237;-87
2021/05/05 00:07:55;;;;;;;4.73;1.50;;;7.60;79.60;;;;;;5053238;28;20316;-87
2021/05/05 00:10:21;;;;;;;13.33;4.40;;;7.60;78.70;;;;;;5051915;28;20185;-87
2021/05/05 00:12:48;;;;;;;5.33;1.70;;;7.60;79.00;;;;;;5051919;28;20632;-87
2021/05/05 00:15:17;;;;;;;3.63;1.33;;;7.60;78.70;;;;;;5053352;28;20287;-87
2021/05/05 00:17:43;;;;;;;6.13;1.90;;;7.50;79.50;;;;;;5053188;28;20183;-87
2021/05/05 00:20:09;;;;;;;11.60;2.47;;;7.60;79.40;;;;;;5053135;28;20176;-87
2021/05/05 00:22:35;;;;;;;9.90;2.20;;;7.50;80.20;;;;;;5053035;28;20179;-87
2021/05/05 00:25:02;;;;;;;8.40;1.70;;;7.50;79.90;;;;;;5053041;28;20698;-87
2021/05/05 00:27:27;;;;;;;5.53;1.97;;;7.40;80.30;;;;;;5052979;28;20233;-87
2021/05/05 00:29:53;;;;;;;6.97;2.03;;;7.40;79.10;;;;;;5051613;28;20588;-87
2021/05/05 00:32:18;;;;;;;5.17;1.60;;;7.40;79.30;;;;;;5052970;28;20176;-87
2021/05/05 00:34:44;;;;;;;5.90;1.70;;;7.40;79.10;;;;;;5051658;28;20737;-87
2021/05/05 00:37:10;;;;;;;9.33;1.80;;;7.40;79.60;;;;;;5051666;28;20203;-87
2021/05/05 00:39:35;;;;;;;2.33;1.13;;;7.40;79.80;;;;;;5051736;28;20232;-87
2021/05/05 00:42:01;;;;;;;6.83;1.40;;;7.40;79.30;;;;;;5051654;28;20185;-87
2021/05/05 00:44:27;;;;;;;8.70;1.87;;;7.40;79.20;;;;;;5051570;28;20673;-87
2021/05/05 00:46:53;;;;;;;6.00;1.93;;;7.40;79.30;;;;;;5053082;28;20181;-87
2021/05/05 00:49:18;;;;;;;7.20;1.83;;;7.40;79.20;;;;;;5052831;28;20171;-87
2021/05/05 00:51:44;;;;;;;7.33;2.47;;;7.40;79.90;;;;;;5051818;28;20182;-87
2021/05/05 00:54:10;;;;;;;5.40;1.60;;;7.40;79.30;;;;;;5052717;28;20237;-87
2021/05/05 00:56:36;;;;;;;5.97;2.10;;;7.40;79.40;;;;;;5051743;28;20549;-87
2021/05/05 00:59:02;;;;;;;3.30;1.50;;;7.30;79.80;;;;;;5052745;28;20179;-87
2021/05/05 01:01:28;;;;;;;4.00;1.40;;;7.30;79.80;;;;;;5052689;28;20175;-86
2021/05/05 01:03:53;;;;;;;4.67;1.40;;;7.30;79.80;;;;;;5051651;28;20185;-86
2021/05/05 01:06:19;;;;;;;3.90;2.03;;;7.30;80.20;;;;;;5052615;28;20182;-87
2021/05/05 01:08:47;;;;;;;3.57;1.27;;;7.30;80.30;;;;;;5051314;28;20214;-87
2021/05/05 01:11:13;;;;;;;4.10;1.50;;;7.30;80.30;;;;;;5052604;28;20175;-86
2021/05/05 01:13:39;;;;;;;6.73;1.73;;;7.30;80.40;;;;;;5052699;28;20232;-87
2021/05/05 01:16:05;;;;;;;3.23;1.33;;;7.30;80.50;;;;;;5051244;28;20221;-87
2021/05/05 01:18:31;;;;;;;8.83;1.83;;;7.30;79.60;;;;;;5052543;28;20181;-87
2021/05/05 01:20:58;;;;;;;4.47;1.97;;;7.30;80.40;;;;;;5052573;28;20189;-87
2021/05/05 01:23:25;;;;;;;10.20;2.07;;;7.30;80.20;;;;;;5051240;28;20186;-87
2021/05/05 01:25:51;;;;;;;8.40;2.00;;;7.30;80.50;;;;;;5051181;28;20198;-86
2021/05/05 01:28:17;;;;;;;8.97;2.40;;;7.30;80.50;;;;;;5051159;28;20204;-86
2021/05/05 01:30:43;;;;;;;7.93;1.70;;;7.30;80.90;;;;;;5052405;28;20177;-87
2021/05/05 01:33:09;;;;;;;1.43;1.33;;;7.30;80.60;;;;;;5052415;28;20177;-87
2021/05/05 01:35:35;;;;;;;6.47;2.13;;;7.20;80.00;;;;;;5052334;28;20199;-86
2021/05/05 01:38:01;;;;;;;4.70;1.70;;;7.20;80.80;;;;;;5052390;28;20178;-86
2021/05/05 01:40:32;;;;;;;6.27;1.70;;;7.20;80.40;;;;;;5051545;28;20205;-87
2021/05/05 01:43:01;;;;;;;5.57;1.90;;;7.30;80.20;;;;;;5054671;28;20209;-86
2021/05/05 01:45:27;;;;;;;11.83;1.93;;;7.30;80.00;;;;;;5054581;28;20202;-86
2021/05/05 01:47:59;;;;;;;6.67;1.53;;;7.30;79.60;;;;;;5055792;28;20621;-87
2021/05/05 01:50:26;;;;;;;6.93;1.83;;;7.30;79.20;;;;;;5054529;28;20210;-86
2021/05/05 01:52:52;;;;;;;5.70;1.87;;;7.30;80.00;;;;;;5054491;28;20173;-86
2021/05/05 01:55:17;;;;;;;2.37;1.10;;;7.20;79.80;;;;;;5054423;28;20211;-86
2021/05/05 01:57:44;;;;;;;7.00;1.47;;;7.20;79.10;;;;;;5054469;28;20267;-86
2021/05/05 02:00:17;;;;;;;4.87;1.53;;;7.30;79.00;;;;;;5054403;28;20714;-86
2021/05/05 02:02:44;;;;;;;4.03;1.67;;;7.20;79.20;;;;;;5055946;28;20607;-86
2021/05/05 02:05:10;;;;;;;6.17;1.87;;;7.20;79.50;;;;;;5055650;28;20662;-86
2021/05/05 02:07:36;;;;;;;3.00;1.23;;;7.20;79.90;;;;;;5054226;28;20258;-86
2021/05/05 02:10:11;;;;;;;6.00;1.70;;;7.20;79.90;;;;;;5054167;28;20176;-86
2021/05/05 02:12:37;;;;;;;7.73;1.87;;;7.10;80.10;;;;;;5055359;28;20639;-86
2021/05/05 02:15:04;;;;;;;8.40;1.67;;;7.10;80.80;;;;;;5054035;28;20217;-86
2021/05/05 02:17:30;;;;;;;3.60;1.83;;;7.00;81.30;;;;;;5054059;28;20192;-86
2021/05/05 02:19:56;;;;;;;6.20;1.93;;;7.00;81.80;;;;;;5055507;28;20183;-86
2021/05/05 02:22:22;;;;;;;10.20;1.90;;;7.00;80.90;;;;;;5055199;28;20223;-86
2021/05/05 02:24:48;;;;;;;10.17;1.70;;;7.00;80.90;;;;;;5055068;28;20678;-86
2021/05/05 02:27:14;;;;;;;2.10;1.10;;;7.00;81.50;;;;;;5054999;28;20283;-86
2021/05/05 02:29:41;;;;;;;4.57;1.47;;;6.90;82.00;;;;;;5053827;28;20184;-86
2021/05/05 02:32:15;;;;;;;5.70;1.40;;;6.90;82.20;;;;;;5053876;28;20180;-86
2021/05/05 02:34:41;;;;;;;8.37;2.17;;;6.90;83.00;;;;;;5053679;28;20603;-86
2021/05/05 02:37:11;;;;;;;7.60;2.13;;;6.80;83.80;;;;;;5053610;28;20187;-86
2021/05/05 02:39:40;;;;;;;13.43;2.43;;;6.80;83.10;;;;;;5053598;28;20674;-86
2021/05/05 02:42:24;;;;;;;7.60;1.70;;;6.80;83.50;;;;;;5055135;28;20256;-86
2021/05/05 02:44:50;;;;;;;10.43;2.00;;;6.80;83.70;;;;;;5054757;28;20201;-86
2021/05/05 02:47:18;;;;;;;8.23;2.10;;;6.70;84.20;;;;;;5054648;28;20291;-86
2021/05/05 02:49:43;;;;;;;5.83;1.97;;;6.60;85.40;;;;;;5054651;28;20229;-86
2021/05/05 02:52:09;;;;;;;5.50;2.03;;;6.50;86.00;;;;;;5053489;28;20173;-86
2021/05/05 02:54:35;;;;;;;7.10;2.07;;;6.50;86.50;;;;;;5053273;28;20207;-87
2021/05/05 02:57:01;;;;;;;4.20;1.87;;;6.50;86.70;;;;;;5054475;28;20177;-87
2021/05/05 02:59:28;;;;;;;8.30;1.97;;;6.50;86.60;;;;;;5054469;28;20172;-86
2021/05/05 03:01:56;;;;;;;4.90;2.00;;;6.50;87.40;;;;;;5053265;28;20177;-86
2021/05/05 03:04:25;;;;;;;6.87;1.80;;;6.40;87.40;;;;;;5053070;28;20196;-86
2021/05/05 03:06:55;;;;;;;9.87;2.17;;;6.50;87.00;;;;;;5054228;28;20546;-86
2021/05/05 03:09:24;;;;;;;6.20;1.43;;;6.50;86.70;;;;;;5053894;28;20298;-86
2021/05/05 03:11:51;;;;;;;6.03;2.17;;;6.50;86.00;;;;;;5054259;28;20164;-87
2021/05/05 03:14:17;;;;;;;6.37;1.80;;;6.50;86.00;;;;;;5052667;28;20200;-87
2021/05/05 03:16:42;;;;;;;6.93;1.60;;;6.50;86.40;;;;;;5052962;28;20262;-87
2021/05/05 03:19:08;;;;;;;11.50;3.20;;;6.40;86.50;;;;;;5052865;28;20320;-87
2021/05/05 03:21:37;;;;;;;5.73;1.83;;;6.50;86.40;;;;;;5052831;28;20173;-86
2021/05/05 03:24:03;;;;;;;6.63;1.67;;;6.50;85.80;;;;;;5054023;28;20254;-87
2021/05/05 03:26:28;;;;;;;5.90;2.27;;;6.50;85.50;;;;;;5054043;28;20180;-87
2021/05/05 03:28:54;;;;;;;9.97;1.77;;;6.50;85.20;;;;;;5052563;28;20208;-87
2021/05/05 03:31:19;;;;;;;2.23;1.37;;;6.50;85.00;;;;;;5053837;28;20703;-87
2021/05/05 03:33:45;;;;;;;5.90;1.90;;;6.50;84.80;;;;;;5054425;28;20203;-87
2021/05/05 03:36:10;;;;;;;9.53;2.10;;;6.50;85.30;;;;;;5053715;28;20545;-86
2021/05/05 03:38:36;;;;;;;1.20;1.10;;;6.40;85.90;;;;;;5053807;28;20230;-86
2021/05/05 03:41:02;;;;;;;4.87;1.40;;;6.40;85.40;;;;;;5052436;28;20176;-86
2021/05/05 03:43:27;;;;;;;13.33;2.30;;;6.30;85.50;;;;;;5053950;28;20251;-86
2021/05/05 03:45:53;;;;;;;6.63;1.87;;;6.30;85.80;;;;;;5053575;28;20196;-86
2021/05/05 03:48:22;;;;;;;3.83;1.70;;;6.30;85.90;;;;;;5052271;28;20208;-86
2021/05/05 03:50:48;;;;;;;6.60;2.03;;;6.30;85.60;;;;;;5052552;28;20659;-86
2021/05/05 03:53:13;;;;;;;6.40;2.13;;;6.30;85.70;;;;;;5053496;28;20168;-86
2021/05/05 03:55:39;;;;;;;5.23;1.57;;;6.30;85.80;;;;;;5053617;28;20232;-86
2021/05/05 03:58:05;;;;;;;2.73;1.47;;;6.30;85.90;;;;;;5053410;28;20207;-86
2021/05/05 04:00:30;;;;;;;5.70;1.60;;;6.30;86.10;;;;;;5052130;28;20542;-86
2021/05/05 04:02:56;;;;;;;5.53;2.00;;;6.30;85.70;;;;;;5053164;28;20176;-86
2021/05/05 04:05:21;;;;;;;4.80;1.37;;;6.30;85.30;;;;;;5051811;28;20200;-86
2021/05/05 04:07:47;;;;;;;2.53;1.60;;;6.30;85.50;;;;;;5053289;28;20278;-86
2021/05/05 04:10:13;;;;;;;6.47;1.70;;;6.30;85.60;;;;;;5053280;28;20168;-87
2021/05/05 04:12:40;;;;;;;6.03;1.80;;;6.30;85.80;;;;;;5053475;28;20656;-87
2021/05/05 04:15:07;;;;;;;5.23;1.90;;;6.30;86.00;;;;;;5051714;28;20215;-86
2021/05/05 04:17:32;;;;;;;9.43;1.93;;;6.40;85.10;;;;;;5053067;28;20707;-86
2021/05/05 04:19:58;;;;;;;8.47;2.63;;;6.30;86.00;;;;;;5053085;28;20168;-86
2021/05/05 04:22:25;;;;;;;3.87;1.73;;;6.30;86.10;;;;;;5053146;28;20173;-87
2021/05/05 04:24:51;;;;;;;4.47;1.83;;;6.30;85.80;;;;;;5051717;28;20196;-87
2021/05/05 04:27:17;;;;;;;4.73;2.00;;;6.40;85.90;;;;;;5052956;28;20203;-86
2021/05/05 04:29:43;;;;;;;5.27;1.80;;;6.40;85.40;;;;;;5052984;28;20548;-87
2021/05/05 04:32:09;;;;;;;9.30;1.57;;;6.50;84.90;;;;;;5052070;28;20172;-87
2021/05/05 04:34:35;;;;;;;8.50;1.70;;;6.50;84.50;;;;;;5052905;28;20700;-86
2021/05/05 04:37:03;;;;;;;8.30;1.90;;;6.50;83.50;;;;;;5051694;28;20175;-86
2021/05/05 04:39:29;;;;;;;7.43;1.93;;;6.60;83.30;;;;;;5051646;28;20172;-87
2021/05/05 04:41:54;;;;;;;2.40;1.60;;;6.60;83.50;;;;;;5052857;28;20176;-86
2021/05/05 04:44:20;;;;;;;5.73;2.20;;;6.60;83.60;;;;;;5051506;28;20259;-87
2021/05/05 04:46:46;;;;;;;5.77;1.70;;;6.60;83.90;;;;;;5051613;28;20260;-87
2021/05/05 04:49:11;;;;;;;5.60;2.03;;;6.60;83.70;;;;;;5052772;28;20201;-86
2021/05/05 04:51:39;;;;;;;4.60;1.67;;;6.70;83.30;;;;;;5051524;28;20177;-86
2021/05/05 04:54:06;;;;;;;4.67;1.50;;;6.70;82.60;;;;;;5051459;28;20689;-86
2021/05/05 04:56:32;;;;;;;11.20;3.10;;;6.70;83.30;;;;;;5051591;28;20173;-86
2021/05/05 04:58:58;;;;;;;7.87;2.20;;;6.70;82.70;;;;;;5052729;28;20188;-86
2021/05/05 05:01:23;;;;;;;9.37;2.30;;;6.70;83.40;;;;;;5051489;28;20267;-86
2021/05/05 05:03:49;;;;;;;8.87;2.27;;;6.60;83.80;;;;;;5052761;28;20173;-86
2021/05/05 05:06:15;;;;;;;8.83;3.07;;;6.60;84.10;;;;;;5052620;28;20726;-86
2021/05/05 05:08:40;;;;;;;9.13;2.37;;;6.60;83.40;;;;;;5051326;28;20584;-86
2021/05/05 05:11:06;;;;;;;4.40;1.87;;;6.60;83.50;;;;;;5052954;28;20170;-86
2021/05/05 05:13:32;;;;;;;8.50;2.33;;;6.60;83.70;;;;;;5051376;28;20168;-86
2021/05/05 05:15:57;;;;;;;7.73;2.37;;;6.60;83.70;;;;;;5053785;28;20677;-86
2021/05/05 05:18:23;;;;;;;5.20;1.97;;;6.60;83.50;;;;;;5056396;28;20243;-86
2021/05/05 05:20:48;;;;;;;6.83;2.00;;;6.60;83.90;;;;;;5056471;28;20227;-86
2021/05/05 05:23:14;;;;;;;5.40;2.03;;;6.50;85.10;;;;;;5056616;28;20205;-86
2021/05/05 05:25:39;;;;;;;7.73;2.17;;;6.60;83.70;;;;;;5056208;28;20220;-86
2021/05/05 05:28:05;;;;;;;7.07;2.13;;;6.60;84.80;;;;;;5056091;28;20282;-86
2021/05/05 05:30:31;;;;;;;13.10;2.30;;;6.70;83.50;;;;;;5054939;28;20547;-86
2021/05/05 05:32:57;;;;;;;6.47;1.83;;;6.70;83.60;;;;;;5056140;28;20168;-86
2021/05/05 05:35:22;;;;;;;7.63;2.00;;;6.70;83.40;;;;;;5054756;28;20198;-86
2021/05/05 05:37:48;;;;;;;6.43;2.10;;;6.70;83.00;;;;;;5054825;28;20178;-86
2021/05/05 05:40:15;;;;;;;16.93;2.50;;;6.70;82.70;;;;;;5054766;28;20232;-86
2021/05/05 05:42:41;;;;;;;5.10;1.97;;;6.70;83.70;;;;;;5055961;28;20260;-86
2021/05/05 05:45:07;;;;;;;8.37;1.70;;;6.70;83.40;;;;;;5055875;28;20228;-86
2021/05/05 05:47:33;;;;;;;3.53;1.87;;;6.70;83.40;;;;;;5054599;28;20208;-86
2021/05/05 05:49:58;;;;;;;2.00;1.77;;;6.60;83.50;;;;;;5055811;28;20164;-86
2021/05/05 05:52:24;;;;;;;7.10;2.23;;;6.60;84.30;;;;;;5055802;28;20195;-86
2021/05/05 05:54:50;;;;;;;7.20;1.87;;;6.60;84.10;;;;;;5054428;28;20197;-86
2021/05/05 05:57:16;;;;;;;10.77;2.63;;;6.60;84.50;;;;;;5054418;28;20239;-86
2021/05/05 05:59:42;;;;;;;2.93;1.73;;;6.60;84.30;;;;;;5055656;28;20172;-86
2021/05/05 06:02:09;;;;;;;7.77;1.83;;;6.50;85.70;;;;;;5054306;28;20183;-86
2021/05/05 06:04:34;;;;;;;5.90;1.80;;;6.50;85.20;;;;;;5055546;28;20649;-86
2021/05/05 06:07:00;;;;;;;8.97;1.80;;;6.50;85.30;;;;;;5054148;28;20176;-86
2021/05/05 06:09:26;;;;;;;6.40;2.03;;;6.50;85.20;;;;;;5054169;28;20185;-87
2021/05/05 06:11:51;;;;;;;7.13;2.17;;;6.50;85.30;;;;;;5055733;28;20691;-86
2021/05/05 06:14:17;;;;;;;5.37;2.33;;;6.50;85.40;;;;;;5054017;28;20662;-86
2021/05/05 06:16:43;;;;;;;4.90;1.57;;;6.40;85.90;;;;;;5153106;22;20261;-83
2021/05/05 06:19:09;;;;;;;3.27;1.93;;;6.50;86.00;;;;;;5053997;28;20682;-83
2021/05/05 06:21:35;;;;;;;9.63;2.43;;;6.40;85.40;;;;;;5055084;28;20196;-83
2021/05/05 06:24:00;;;;;;;6.40;1.97;;;6.50;84.90;;;;;;5055651;28;20204;-83
2021/05/05 06:26:26;;;;;;;8.83;2.20;;;6.40;84.90;;;;;;5054660;28;20197;-83
2021/05/05 06:28:51;;;;;;;7.90;2.03;;;6.50;85.60;;;;;;5054906;28;20201;-83
2021/05/05 06:31:17;;;;;;;7.00;2.20;;;6.50;85.30;;;;;;5054996;28;20602;-83
2021/05/05 06:33:43;;;;;;;7.20;2.20;;;6.50;85.60;;;;;;5054897;28;20160;-83
2021/05/05 06:36:09;;;;;;;5.23;1.67;;;6.50;85.60;;;;;;5055505;28;20201;-84
2021/05/05 06:38:35;;;;;;;4.00;1.93;;;6.50;85.80;;;;;;5054741;28;20170;-83
2021/05/05 06:41:01;;;;;;;9.73;2.70;;;6.50;86.00;;;;;;5053633;28;20186;-83
2021/05/05 06:43:27;;;;;;;7.40;2.07;;;6.60;86.60;;;;;;5054829;28;20553;-83
2021/05/05 06:45:52;;;;;;;1.80;1.30;;;6.50;86.40;;;;;;5054511;28;20194;-83
2021/05/05 06:48:18;;;;;;;8.93;1.97;;;6.50;85.70;;;;;;5053274;28;20200;-83
2021/05/05 06:50:44;;;;;;;3.17;1.73;;;6.50;86.40;;;;;;5054713;28;20168;-84
2021/05/05 06:53:11;;;;;;;2.00;1.43;;;6.40;86.30;;;;;;5055234;28;20160;-83
2021/05/05 06:55:36;;;;;;;2.27;1.43;;;6.30;86.50;;;;;;5054907;28;20672;-83
2021/05/05 06:58:02;;;;;;;3.77;1.53;;;6.30;86.90;;;;;;5055822;28;20171;-84
2021/05/05 07:00:28;;;;;;;3.80;1.43;;;6.30;86.60;;;;;;5055107;28;20183;-84
2021/05/05 07:02:54;;;;;;;8.17;4.30;;;6.30;87.30;;;;;;5054375;28;20225;-84
2021/05/05 07:05:19;;;;;;;5.57;1.13;;;6.30;87.70;;;;;;5052956;28;20193;-84
2021/05/05 07:07:45;;;;;;;1.87;1.07;;;6.20;87.20;;;;;;5052818;28;20203;-84
2021/05/05 07:10:11;;;;;;;1.27;1.17;;;6.20;87.90;;;;;;5052976;28;20214;-84
2021/05/05 07:12:37;;;;;;;5.30;1.53;;;6.20;87.30;;;;;;5054283;28;20649;-84
2021/05/05 07:15:04;;;;;;;2.20;1.47;;;6.30;88.10;;;;;;5054115;28;20199;-83
2021/05/05 07:17:29;;;;;;;6.67;1.67;;;6.30;88.00;;;;;;5054061;28;20662;-84
2021/05/05 07:19:55;;;;;;;6.13;1.80;;;6.30;87.80;;;;;;5052760;28;20183;-84
2021/05/05 07:22:21;;;;;;;3.37;1.70;;;6.30;88.20;;;;;;5052717;28;20191;-84
2021/05/05 07:24:48;;;;;;;3.57;1.80;;;6.30;88.00;;;;;;5053910;28;20195;-84
2021/05/05 07:27:15;;;;;;;3.27;1.77;;;6.30;87.80;;;;;;5053879;28;20650;-84
2021/05/05 07:29:41;;;;;;;2.20;1.50;;;6.30;87.70;;;;;;5052616;28;20584;-84
2021/05/05 07:32:07;;;;;;;6.20;2.87;;;6.30;88.20;;;;;;5052627;28;20264;-84
2021/05/05 07:34:33;;;;;;;10.17;2.67;;;6.30;88.20;;;;;;5052456;28;20176;-84
2021/05/05 07:37:10;;;;;;;6.03;2.40;;;6.30;87.70;;;;;;5052330;28;20199;-84
2021/05/05 07:48:10;;;;;;;10.90;2.20;;;6.50;87.20;;;;;;5020009;28;20216;-84
2021/05/05 07:50:36;;;;;;;5.80;1.90;;;6.60;87.70;;;;;;5053554;28;20168;-84
2021/05/05 07:53:02;;;;;;;6.13;1.90;;;6.70;88.30;;;;;;5053746;28;20184;-83
2021/05/05 07:55:28;;;;;;;3.43;1.50;;;6.70;87.10;;;;;;5052103;28;20696;-83
2021/05/05 07:57:55;;;;;;;6.13;1.67;;;6.70;87.90;;;;;;5053518;28;20565;-83
2021/05/05 08:00:21;;;;;;;7.73;1.80;;;6.60;87.50;;;;;;5053425;28;20176;-84
2021/05/05 08:02:47;;;;;;;11.53;2.47;;;6.60;87.50;;;;;;5053329;28;20597;-84
2021/05/05 08:05:13;;;;;;;5.03;1.40;;;6.70;87.60;;;;;;5051948;28;20223;-83
2021/05/05 08:07:39;;;;;;;6.20;1.93;;;6.60;87.20;;;;;;5051881;28;20257;-84
2021/05/05 08:10:06;;;;;;;6.00;1.30;;;6.60;87.20;;;;;;5053320;28;20203;-84
2021/05/05 08:12:32;;;;;;;6.23;2.43;;;6.60;87.50;;;;;;5053189;28;20175;-84
2021/05/05 08:14:58;;;;;;;4.53;1.67;;;6.60;88.20;;;;;;5051963;28;20557;-84
2021/05/05 08:17:23;;;;;;;4.70;1.80;;;6.60;87.90;;;;;;5052409;28;20177;-84
2021/05/05 08:19:49;;;;;;;22.33;2.60;;;6.60;87.40;;;;;;5051957;28;20189;-83
2021/05/05 08:22:15;;;;;;;4.30;2.07;;;6.60;87.20;;;;;;5053618;28;20177;-83
2021/05/05 08:24:42;;;;;;;4.07;1.80;;;6.70;87.30;;;;;;5056201;28;20184;-83
2021/05/05 08:27:11;;;;;;;8.87;2.20;;;6.70;87.70;;;;;;5055867;28;20616;-83
2021/05/05 08:29:37;;;;;;;7.00;2.23;;;6.80;87.90;;;;;;5053336;28;20255;-85
2021/05/05 08:32:03;;;;;;;4.90;1.57;;;6.80;87.60;;;;;;5052090;28;20177;-84
2021/05/05 08:34:29;;;;;;;5.90;3.03;;;6.80;87.70;;;;;;5053075;28;20220;-84
2021/05/05 08:36:56;;;;;;;5.90;1.90;;;6.80;87.30;;;;;;5051704;28;20196;-83
2021/05/05 08:39:22;;;;;;;15.13;1.80;;;6.80;86.40;;;;;;5052860;28;20215;-84
2021/05/05 08:41:48;;;;;;;7.43;1.77;;;6.90;87.10;;;;;;5051503;28;20727;-83
2021/05/05 08:44:15;;;;;;;12.30;1.80;;;6.90;87.60;;;;;;5051608;28;20733;-83
2021/05/05 08:46:42;;;;;;;3.30;1.50;;;6.90;87.40;;;;;;5052769;28;20227;-84
2021/05/05 08:49:09;;;;;;;6.60;1.80;;;6.80;87.70;;;;;;5051463;28;20255;-84
2021/05/05 08:51:37;;;;;;;3.27;1.57;;;6.80;88.20;;;;;;5056810;28;20238;-86
2021/05/05 08:54:05;;;;;;;7.10;2.03;;;6.80;88.50;;;;;;5055423;28;20177;-84
2021/05/05 08:56:35;;;;;;;10.43;2.47;;;6.80;88.30;;;;;;5055419;28;20286;-84
2021/05/05 08:59:02;;;;;;;10.77;2.87;;;6.80;88.10;;;;;;5055390;28;20266;-83
2021/05/05 09:01:28;;;;;;;7.30;2.10;;;6.80;88.00;;;;;;5055453;28;20192;-84
2021/05/05 09:03:54;;;;;;;3.37;1.60;;;6.80;87.20;;;;;;5055291;28;20177;-84
2021/05/05 09:06:45;;;;;;;8.93;1.87;;;6.70;87.10;;;;;;5055276;28;20200;-84
2021/05/05 09:09:29;;;;;;;7.57;1.77;;;6.70;87.40;;;;;;5056521;28;20190;-84
2021/05/05 09:11:55;;;;;;;7.67;1.70;;;6.80;88.50;;;;;;5056525;28;20153;-84
2021/05/05 09:14:21;;;;;;;7.17;2.00;;;6.90;87.60;;;;;;5056541;28;20167;-83
2021/05/05 09:16:46;;;;;;;4.30;1.77;;;6.80;88.40;;;;;;5056552;28;20694;-84
2021/05/05 09:19:12;;;;;;;4.30;1.83;;;6.80;87.00;;;;;;5056585;28;20259;-84
2021/05/05 09:21:41;;;;;;;6.53;2.03;;;6.80;86.80;;;;;;5056313;28;20178;-84
2021/05/05 09:24:22;;;;;;;5.00;1.97;;;6.80;87.50;;;;;;5056299;28;20672;-83
2021/05/05 09:26:59;;;;;;;6.00;1.90;;;6.80;87.40;;;;;;5056368;28;20604;-84
2021/05/05 09:29:46;;;;;;;4.60;1.60;;;6.80;87.70;;;;;;5056006;28;20188;-84
2021/05/05 09:32:15;;;;;;;3.37;1.53;;;6.90;88.10;;;;;;5056139;28;20211;-84
2021/05/05 09:34:41;;;;;;;2.40;1.00;;;6.90;87.90;;;;;;5056072;28;20180;-84
2021/05/05 09:37:10;;;;;;;7.10;1.50;;;7.00;87.60;;;;;;5054707;28;20235;-84
2021/05/05 09:39:39;;;;;;;5.07;1.17;;;6.80;86.80;;;;;;5056005;28;20168;-84
2021/05/05 09:42:24;;;;;;;7.73;1.80;;;6.90;88.20;;;;;;5055895;28;20169;-84
2021/05/05 09:45:00;;;;;;;5.33;1.67;;;6.90;87.70;;;;;;5054543;28;20172;-83
2021/05/05 09:47:55;;;;;;;6.07;1.50;;;6.90;87.10;;;;;;5055760;28;20242;-85
2021/05/05 09:50:38;;;;;;;4.33;1.80;;;7.00;87.30;;;;;;5055783;28;20172;-84
2021/05/05 09:53:21;;;;;;;4.10;1.67;;;7.00;87.80;;;;;;5054484;28;20653;-85
2021/05/05 09:56:08;;;;;;;4.00;1.77;;;7.00;87.80;;;;;;5055716;28;20314;-84
2021/05/05 09:58:37;;;;;;;3.27;1.80;;;7.20;87.30;;;;;;5054435;28;20182;-84
2021/05/05 10:03:56;;;;;;;10.87;2.40;;;7.10;87.80;;;;;;5055719;28;20184;-85
2021/05/05 10:06:32;;;;;;;7.00;2.07;;;7.00;87.80;;;;;;5054107;28;20214;-85
2021/05/05 10:09:13;;;;;;;7.87;1.80;;;7.10;88.30;;;;;;5054031;28;20209;-85
2021/05/05 10:11:41;;;;;;;8.73;1.73;;;7.10;87.90;;;;;;5054346;28;20594;-85
2021/05/05 10:14:16;;;;;;;15.13;2.20;;;7.20;88.30;;;;;;5054093;28;20181;-85
2021/05/05 10:16:52;;;;;;;5.63;1.80;;;7.20;87.90;;;;;;5055218;28;20727;-85
2021/05/05 10:19:25;;;;;;;9.47;1.97;;;7.20;88.20;;;;;;5054115;28;20178;-85
2021/05/05 10:22:00;;;;;;;9.27;2.40;;;7.30;87.20;;;;;;5055318;28;20189;-85
2021/05/05 10:24:29;;;;;;;15.40;2.03;;;7.30;87.40;;;;;;5053903;28;20649;-83
2021/05/05 10:26:56;;;;;;;7.47;1.80;;;7.30;87.30;;;;;;5053799;28;20276;-84
2021/05/05 10:29:22;;;;;;;14.13;3.00;;;7.50;87.40;;;;;;5053874;28;20232;-84
2021/05/05 10:31:55;;;;;;;12.40;1.63;;;7.80;87.70;;;;;;5055267;28;20182;-84
2021/05/05 10:34:22;;;;;;;15.33;2.03;;;7.80;87.00;;;;;;5053772;28;20232;-85
2021/05/05 10:36:54;;;;;;;5.83;1.77;;;7.50;87.60;;;;;;5053555;28;20204;-84
2021/05/05 10:39:25;;;;;;;3.37;1.27;;;7.40;87.80;;;;;;5054179;28;20213;-84
2021/05/05 10:42:04;;;;;;;8.70;1.53;;;7.40;87.90;;;;;;5055101;28;20184;-84
2021/05/05 10:44:40;;;;;;;8.33;1.77;;;7.40;88.10;;;;;;5054820;28;20663;-84
2021/05/05 10:47:16;;;;;;;10.37;1.70;;;7.60;88.00;;;;;;5053463;28;20175;-84
2021/05/05 10:52:34;;;;;;;1.27;1.03;;;7.80;87.00;;;;;;5055019;28;20160;-84
2021/05/05 10:55:05;;;;;;;7.47;1.87;;;7.70;86.50;;;;;;5054712;28;20191;-84
2021/05/05 10:57:30;;;;;;;6.57;1.73;;;7.90;86.70;;;;;;5054798;28;20630;-84
2021/05/05 11:00:35;;;;;;;4.43;1.70;;;7.80;87.50;;;;;;5054464;28;20168;-84
2021/05/05 11:02:59;;;;;;;3.23;1.60;;;7.70;86.80;;;;;;5052507;28;20656;-84
2021/05/05 11:05:27;;;;;;;7.80;2.90;;;7.50;87.40;;;;;;5054387;28;20193;-84
2021/05/05 11:08:07;;;;;;;4.63;1.63;;;7.30;88.50;;;;;;5052980;28;20199;-84
2021/05/05 11:10:36;;;;;;;1.93;1.13;;;7.30;89.40;;;;;;5054590;28;20526;-84
2021/05/05 11:13:24;;;;;;;5.07;1.43;;;7.30;87.90;;;;;;5053320;28;20168;-85
2021/05/05 11:15:50;;;;;;;1.47;1.20;;;7.40;88.30;;;;;;5052687;28;20207;-85
2021/05/05 11:18:28;;;;;;;8.67;1.70;;;7.50;88.80;;;;;;5052850;28;20617;-85
2021/05/05 11:20:56;;;;;;;6.07;1.57;;;7.30;88.80;;;;;;5054206;28;20248;-85
2021/05/05 11:23:34;;;;;;;5.87;1.60;;;7.40;89.60;;;;;;5053987;28;20181;-85
2021/05/05 11:26:25;;;;;;;9.10;2.17;;;7.40;89.50;;;;;;5052667;28;20209;-85
2021/05/05 11:28:59;;;;;;;1.90;1.37;;;7.30;89.50;;;;;;5047744;28;20209;-86
2021/05/05 11:31:47;;;;;;;6.63;2.00;;;7.20;89.70;;;;;;5053922;28;20690;-86
2021/05/05 11:34:21;;;;;;;7.13;1.63;;;7.20;90.50;;;;;;5054078;28;20171;-86
2021/05/05 11:37:08;;;;;;;3.37;1.10;;;7.30;89.90;;;;;;5052548;28;20197;-86
2021/05/05 11:39:36;;;;;;;4.00;1.33;;;7.30;89.70;;;;;;5052589;28;20192;-85
2021/05/05 11:42:13;;;;;;;2.97;1.50;;;7.40;89.50;;;;;;5052383;28;20185;-85
2021/05/05 11:44:49;;;;;;;6.17;1.50;;;7.40;90.30;;;;;;5091593;28;20526;-85
2021/05/05 11:47:26;;;;;;;4.17;1.63;;;7.40;89.50;;;;;;5091018;28;20267;-85
2021/05/05 11:49:54;;;;;;;5.63;2.97;;;7.40;89.20;;;;;;5090883;28;20173;-85
2021/05/05 11:52:25;;;;;;;4.27;1.13;;;7.50;89.50;;;;;;5090928;28;20171;-84
2021/05/05 11:54:56;;;;;;;7.27;2.00;;;7.40;87.60;;;;;;5090760;28;20198;-84
2021/05/05 11:57:25;;;;;;;4.83;1.80;;;7.50;88.40;;;;;;5090721;28;20212;-84
2021/05/05 11:59:53;;;;;;;9.33;1.80;;;7.70;89.40;;;;;;5090726;28;20181;-85
2021/05/05 12:02:20;;;;;;;3.97;1.37;;;7.80;88.00;;;;;;5090452;28;20172;-84
2021/05/05 12:04:46;;;;;;;2.70;1.23;;;7.90;87.90;;;;;;5090519;28;20265;-85
2021/05/05 12:07:16;;;;;;;7.33;1.97;;;8.00;87.80;;;;;;5090815;28;20628;-85
2021/05/05 12:09:42;;;;;;;8.30;1.73;;;7.90;87.00;;;;;;5090594;28;20241;-84
2021/05/05 12:12:17;;;;;;;3.93;1.80;;;8.00;87.50;;;;;;5090190;28;20265;-84
2021/05/05 12:15:04;;;;;;;3.63;1.70;;;8.00;87.60;;;;;;5090115;28;20553;-84
2021/05/05 12:17:35;;;;;;;3.90;1.70;;;7.90;87.40;;;;;;5144924;22;20716;-84
2021/05/05 12:20:10;;;;;;;8.07;2.67;;;7.80;88.20;;;;;;5050010;28;20152;-84
2021/05/05 12:22:50;;;;;;;6.83;2.30;;;7.80;88.80;;;;;;5049869;28;20175;-84
2021/05/05 12:25:19;;;;;;;10.43;2.60;;;7.80;88.90;;;;;;5049960;28;20167;-84
2021/05/05 12:28:06;;;;;;;14.67;3.00;;;7.70;88.60;;;;;;5049785;28;20223;-83
2021/05/05 12:30:52;;;;;;;13.00;2.50;;;7.70;88.00;;;;;;5048588;28;20175;-83
2021/05/05 12:33:36;;;;;;;15.50;2.90;;;7.70;88.50;;;;;;5050975;28;20164;-84
2021/05/05 12:36:05;;;;;;;7.63;2.13;;;7.70;88.80;;;;;;5049670;28;20196;-83
2021/05/05 12:38:40;;;;;;;9.33;2.63;;;7.70;89.00;;;;;;5048473;28;20190;-83
2021/05/05 12:41:12;;;;;;;7.63;2.37;;;7.70;88.30;;;;;;5049632;28;20265;-83
2021/05/05 12:43:39;;;;;;;4.63;1.43;;;7.80;88.40;;;;;;5049553;28;20188;-83
2021/05/05 12:46:19;;;;;;;10.43;2.80;;;7.80;88.50;;;;;;5049602;28;20227;-83
2021/05/05 12:48:44;;;;;;;9.03;2.93;;;7.80;88.50;;;;;;5049634;28;20152;-82
2021/05/05 12:51:16;;;;;;;10.63;2.23;;;7.70;87.90;;;;;;5048363;28;20232;-83
2021/05/05 12:53:57;;;;;;;14.83;2.80;;;7.60;86.90;;;;;;5049738;28;20607;-84
2021/05/05 12:56:46;;;;;;;12.97;3.13;;;7.60;88.90;;;;;;5034408;28;20200;-84
2021/05/05 12:59:29;;;;;;;10.77;3.30;;;7.60;88.90;;;;;;5036051;28;20195;-84
2021/05/05 13:02:09;;;;;;;9.67;3.47;;;7.50;89.30;;;;;;5034852;28;20167;-85
2021/05/05 13:04:44;;;;;;;15.17;2.63;;;7.50;89.30;;;;;;5035853;28;20602;-86
2021/05/05 13:07:29;;;;;;;12.63;3.37;;;7.40;89.70;;;;;;5035826;28;20195;-85
2021/05/05 13:10:11;;;;;;;14.30;3.13;;;7.30;89.70;;;;;;5034623;28;20182;-85
2021/05/05 13:12:50;;;;;;;16.03;3.67;;;7.30;89.90;;;;;;5034602;28;20175;-86
2021/05/05 13:15:40;;;;;;;7.53;2.33;;;7.30;90.10;;;;;;5036351;28;20198;-85
2021/05/05 13:30:00;;;;;;;10.57;2.67;;;7.30;90.00;;;;;;5035760;28;20159;-83